Time;durP1;ratioP1;P1;durP2;ratioP2;P2;SDS_P1;SDS_P2;PMS_P1;PMS_P2;Temp;Humidity;BMP_temperature;BMP_pressure;BME280_temperature;BME280_humidity;BME280_pressure;Samples;Min_cycle;Max_cycle;Signal;HPM_P1;HPM_P2
2021/12/15 00:01:37;;;;;;;;;;;25.80;27.50;;;;;;487385;243;1224;-78
2021/12/15 00:03:39;;;;;;;;;;;26.10;27.30;;;;;;487439;243;1121;-78
2021/12/15 00:05:41;;;;;;;;;;;26.30;27.30;;;;;;487475;243;965;-78
2021/12/15 00:07:41;;;;;;;;;;;26.20;27.10;;;;;;487376;244;1343;-78
2021/12/15 00:09:43;;;;;;;;;;;26.10;27.30;;;;;;487416;243;1021;-78
2021/12/15 00:11:45;;;;;;;;;;;26.30;27.30;;;;;;487565;243;1207;-78
2021/12/15 00:13:45;;;;;;;;;;;26.00;27.40;;;;;;487278;243;1492;-78
2021/12/15 00:15:47;;;;;;;;;;;26.10;27.40;;;;;;487298;243;1499;-78
2021/12/15 00:17:48;;;;;;;;;;;26.40;27.20;;;;;;487445;244;1100;-78
2021/12/15 00:19:49;;;;;;;;;;;26.40;27.20;;;;;;487355;245;2190;-78
2021/12/15 00:21:51;;;;;;;;;;;26.40;27.10;;;;;;487445;243;1242;-78
2021/12/15 00:23:52;;;;;;;;;;;26.30;27.10;;;;;;487617;244;1081;-78
2021/12/15 00:25:53;;;;;;;;;;;26.60;27.10;;;;;;487438;244;1023;-78
2021/12/15 00:27:55;;;;;;;;;;;26.50;27.00;;;;;;487513;243;1053;-78
2021/12/15 00:29:56;;;;;;;;;;;26.20;27.20;;;;;;487523;244;1060;-78
2021/12/15 00:31:58;;;;;;;;;;;26.00;27.30;;;;;;487528;244;1065;-78
2021/12/15 00:33:59;;;;;;;;;;;26.00;27.30;;;;;;487442;242;1104;-78
2021/12/15 00:36:00;;;;;;;;;;;26.30;27.10;;;;;;487418;242;1105;-78
2021/12/15 00:38:01;;;;;;;;;;;26.10;27.30;;;;;;487428;242;1257;-78
2021/12/15 00:40:03;;;;;;;;;;;26.00;27.40;;;;;;487510;243;2174;-78
2021/12/15 00:42:04;;;;;;;;;;;26.10;27.40;;;;;;487434;243;1126;-78
2021/12/15 00:44:05;;;;;;;;;;;26.20;27.30;;;;;;487326;244;998;-78
2021/12/15 00:46:07;;;;;;;;;;;26.20;27.30;;;;;;487367;243;1117;-78
2021/12/15 00:48:08;;;;;;;;;;;25.70;27.30;;;;;;487388;243;1230;-78
2021/12/15 00:50:09;;;;;;;;;;;25.80;27.60;;;;;;487490;243;1055;-78
2021/12/15 00:52:11;;;;;;;;;;;25.70;27.70;;;;;;487320;244;1169;-78
2021/12/15 00:54:12;;;;;;;;;;;25.70;27.60;;;;;;487641;243;1048;-78
2021/12/15 00:56:14;;;;;;;;;;;25.90;27.60;;;;;;487393;244;1084;-78
2021/12/15 00:58:15;;;;;;;;;;;25.90;27.50;;;;;;487650;244;1142;-78
2021/12/15 01:00:16;;;;;;;;;;;26.00;27.50;;;;;;487373;243;2131;-78
2021/12/15 01:02:18;;;;;;;;;;;25.70;27.60;;;;;;487426;244;1114;-78
2021/12/15 01:04:19;;;;;;;;;;;25.50;27.60;;;;;;487432;242;1065;-78
2021/12/15 01:06:21;;;;;;;;;;;25.70;27.60;;;;;;487586;243;1247;-78
2021/12/15 01:08:22;;;;;;;;;;;25.60;27.60;;;;;;487612;242;1366;-78
2021/12/15 01:10:29;;;;;;;;;;;26.00;27.50;;;;;;487519;242;1075;-78
2021/12/15 01:12:41;;;;;;;;;;;25.90;27.60;;;;;;487158;243;1467;-78
2021/12/15 01:14:35;;;;;;;;;;;25.80;27.50;;;;;;486699;243;1437;-78
2021/12/15 01:21:11;;;;;;;;;;;25.80;27.50;;;;;;487502;242;2107;-78
2021/12/15 01:23:13;;;;;;;;;;;25.90;27.40;;;;;;487431;243;1216;-78
2021/12/15 01:25:14;;;;;;;;;;;25.90;27.50;;;;;;487479;243;1082;-79
2021/12/15 01:27:15;;;;;;;;;;;25.70;27.60;;;;;;487432;243;1139;-78
2021/12/15 01:29:17;;;;;;;;;;;26.00;27.60;;;;;;487445;243;964;-78
2021/12/15 01:31:18;;;;;;;;;;;25.90;27.50;;;;;;487413;243;1120;-78
2021/12/15 01:33:19;;;;;;;;;;;25.90;27.50;;;;;;487452;243;1237;-78
2021/12/15 01:35:21;;;;;;;;;;;25.70;27.60;;;;;;487413;243;1015;-78
2021/12/15 01:37:22;;;;;;;;;;;25.70;27.70;;;;;;487428;243;1148;-78
2021/12/15 01:39:23;;;;;;;;;;;25.80;27.60;;;;;;487394;243;1148;-78
2021/12/15 01:41:25;;;;;;;;;;;25.90;27.50;;;;;;487337;244;1116;-78
2021/12/15 01:43:34;;;;;;;;;;;25.90;27.60;;;;;;487416;243;1062;-78
2021/12/15 01:47:47;;;;;;;;;;;25.90;27.50;;;;;;487383;243;1144;-78
2021/12/15 01:49:48;;;;;;;;;;;25.80;27.60;;;;;;487392;244;1064;-78
2021/12/15 01:51:49;;;;;;;;;;;26.00;27.50;;;;;;487434;243;1232;-78
2021/12/15 01:53:51;;;;;;;;;;;25.90;27.50;;;;;;487482;244;1518;-78
2021/12/15 01:55:52;;;;;;;;;;;26.00;27.40;;;;;;487398;243;1412;-78
2021/12/15 01:57:54;;;;;;;;;;;26.20;27.30;;;;;;487587;243;1057;-78
2021/12/15 01:59:55;;;;;;;;;;;26.10;27.30;;;;;;487501;243;2186;-78
2021/12/15 02:01:56;;;;;;;;;;;26.20;27.40;;;;;;487509;243;1575;-78
2021/12/15 02:03:58;;;;;;;;;;;26.30;27.30;;;;;;487450;243;1224;-78
2021/12/15 02:05:59;;;;;;;;;;;26.00;27.40;;;;;;487442;244;1059;-78
2021/12/15 02:08:01;;;;;;;;;;;26.10;27.40;;;;;;487586;244;1400;-78
2021/12/15 02:10:02;;;;;;;;;;;25.90;27.50;;;;;;487381;244;1209;-78
2021/12/15 02:12:03;;;;;;;;;;;25.80;27.60;;;;;;487297;244;1144;-78
2021/12/15 02:14:04;;;;;;;;;;;25.90;27.50;;;;;;487456;243;1114;-78
2021/12/15 02:16:06;;;;;;;;;;;25.80;27.60;;;;;;487479;244;1219;-78
2021/12/15 02:18:07;;;;;;;;;;;25.80;27.60;;;;;;487464;243;1121;-78
2021/12/15 02:20:09;;;;;;;;;;;25.90;27.50;;;;;;487455;243;2201;-78
2021/12/15 02:22:10;;;;;;;;;;;26.00;27.60;;;;;;487411;243;1109;-78
2021/12/15 02:24:11;;;;;;;;;;;26.10;27.40;;;;;;487422;243;1167;-78
2021/12/15 02:26:14;;;;;;;;;;;26.00;27.40;;;;;;487417;240;1212;-77
2021/12/15 02:28:14;;;;;;;;;;;25.90;27.50;;;;;;487334;244;1465;-78
2021/12/15 02:30:26;;;;;;;;;;;25.90;27.60;;;;;;487547;243;1087;-78
2021/12/15 02:32:33;;;;;;;;;;;25.90;27.60;;;;;;487111;243;1412;-77
2021/12/15 02:34:34;;;;;;;;;;;26.00;27.50;;;;;;486648;244;1447;-78
2021/12/15 02:38:47;;;;;;;;;;;26.10;27.40;;;;;;487661;242;1140;-77
2021/12/15 02:40:48;;;;;;;;;;;25.70;27.60;;;;;;487364;244;2190;-78
2021/12/15 02:42:50;;;;;;;;;;;25.60;27.70;;;;;;487599;244;1553;-78
2021/12/15 02:44:51;;;;;;;;;;;25.70;27.60;;;;;;487444;243;1086;-78
2021/12/15 02:46:52;;;;;;;;;;;26.20;27.40;;;;;;487307;240;1142;-78
2021/12/15 02:48:54;;;;;;;;;;;25.70;27.60;;;;;;487409;244;1153;-78
2021/12/15 02:50:55;;;;;;;;;;;25.90;27.60;;;;;;487454;243;1408;-78
2021/12/15 02:52:58;;;;;;;;;;;25.90;27.60;;;;;;487414;244;1127;-78
2021/12/15 02:54:58;;;;;;;;;;;26.10;27.50;;;;;;487328;243;1418;-78
2021/12/15 02:57:05;;;;;;;;;;;26.10;27.40;;;;;;487694;243;1158;-78
2021/12/15 02:59:04;;;;;;;;;;;26.00;27.40;;;;;;486882;244;1363;-78
2021/12/15 03:01:08;;;;;;;;;;;26.10;27.40;;;;;;487434;244;2174;-78
2021/12/15 03:03:49;;;;;;;;;;;26.00;27.50;;;;;;487206;243;1433;-78
2021/12/15 03:05:33;;;;;;;;;;;26.20;27.30;;;;;;486107;245;1190;-78
2021/12/15 03:07:38;;;;;;;;;;;25.90;27.50;;;;;;487192;244;1495;-78
2021/12/15 03:16:47;;;;;;;;;;;25.90;27.60;;;;;;487473;242;1265;-78
2021/12/15 03:18:49;;;;;;;;;;;26.00;27.50;;;;;;487788;243;1029;-78
2021/12/15 03:20:51;;;;;;;;;;;25.90;27.60;;;;;;487389;243;2135;-78
2021/12/15 03:22:51;;;;;;;;;;;25.90;27.60;;;;;;487554;243;1284;-78
2021/12/15 03:24:52;;;;;;;;;;;26.00;27.60;;;;;;487488;243;1155;-78
2021/12/15 03:26:58;;;;;;;;;;;25.50;27.60;;;;;;487475;242;1169;-78
2021/12/15 03:33:44;;;;;;;;;;;25.60;27.90;;;;;;487359;243;1231;-78
2021/12/15 03:35:49;;;;;;;;;;;25.50;28.00;;;;;;487554;242;1440;-78
2021/12/15 03:37:47;;;;;;;;;;;25.70;27.80;;;;;;487476;242;1462;-78
2021/12/15 03:39:48;;;;;;;;;;;25.70;27.80;;;;;;487462;244;1147;-78
2021/12/15 03:41:57;;;;;;;;;;;25.60;27.70;;;;;;487528;242;2174;-78
2021/12/15 03:43:52;;;;;;;;;;;25.50;27.80;;;;;;487071;244;1383;-78
2021/12/15 03:45:53;;;;;;;;;;;25.40;27.90;;;;;;487374;242;1041;-78
2021/12/15 03:47:54;;;;;;;;;;;25.60;27.80;;;;;;487403;242;1123;-79
2021/12/15 03:49:56;;;;;;;;;;;25.40;27.90;;;;;;487448;242;1061;-78
2021/12/15 03:51:57;;;;;;;;;;;25.30;28.00;;;;;;487316;245;1235;-78
2021/12/15 03:53:58;;;;;;;;;;;25.50;27.90;;;;;;487818;243;1085;-78
2021/12/15 03:56:01;;;;;;;;;;;25.70;27.80;;;;;;487435;243;1187;-77
2021/12/15 03:58:01;;;;;;;;;;;25.60;27.90;;;;;;487402;243;1494;-78
2021/12/15 04:00:02;;;;;;;;;;;25.70;27.80;;;;;;487403;243;1077;-78
2021/12/15 04:02:04;;;;;;;;;;;25.70;27.80;;;;;;487612;242;2160;-78
2021/12/15 04:04:06;;;;;;;;;;;25.70;27.80;;;;;;487427;243;980;-78
2021/12/15 04:06:06;;;;;;;;;;;25.50;27.90;;;;;;487376;244;1412;-78
2021/12/15 04:08:08;;;;;;;;;;;25.60;27.90;;;;;;487450;244;969;-78
2021/12/15 04:10:09;;;;;;;;;;;25.70;27.90;;;;;;487464;243;1131;-78
2021/12/15 04:12:10;;;;;;;;;;;25.60;28.00;;;;;;487412;243;1126;-78
2021/12/15 04:14:12;;;;;;;;;;;25.50;27.90;;;;;;487404;244;993;-78
2021/12/15 04:16:27;;;;;;;;;;;25.30;28.00;;;;;;487339;244;1080;-78
2021/12/15 04:18:14;;;;;;;;;;;25.30;28.10;;;;;;486399;244;1423;-78
2021/12/15 04:20:16;;;;;;;;;;;24.80;28.60;;;;;;487547;244;1064;-78
2021/12/15 04:22:17;;;;;;;;;;;25.00;28.40;;;;;;487313;243;2182;-78
2021/12/15 04:24:18;;;;;;;;;;;25.20;28.30;;;;;;487371;244;1054;-78
2021/12/15 04:26:20;;;;;;;;;;;25.10;28.30;;;;;;487436;243;1971;-78
2021/12/15 04:28:21;;;;;;;;;;;25.20;28.30;;;;;;487591;243;977;-78
2021/12/15 04:30:24;;;;;;;;;;;25.40;28.20;;;;;;487400;244;1065;-78
2021/12/15 04:32:24;;;;;;;;;;;25.40;28.20;;;;;;487403;244;1570;-78
2021/12/15 04:34:25;;;;;;;;;;;25.40;28.10;;;;;;487436;244;1042;-78
2021/12/15 04:36:27;;;;;;;;;;;25.30;28.10;;;;;;487389;242;1160;-78
2021/12/15 04:38:28;;;;;;;;;;;25.40;28.10;;;;;;487608;244;1044;-77
2021/12/15 04:40:29;;;;;;;;;;;25.50;28.10;;;;;;487562;244;2199;-77
2021/12/15 04:42:31;;;;;;;;;;;25.50;28.10;;;;;;487469;243;1120;-78
2021/12/15 04:44:32;;;;;;;;;;;25.50;28.10;;;;;;487365;243;1529;-78
2021/12/15 04:46:33;;;;;;;;;;;25.60;28.00;;;;;;487288;243;1121;-78
2021/12/15 04:48:35;;;;;;;;;;;25.70;28.00;;;;;;487388;243;1191;-78
2021/12/15 04:50:36;;;;;;;;;;;25.40;28.00;;;;;;487402;243;1084;-78
2021/12/15 04:52:37;;;;;;;;;;;25.40;28.10;;;;;;487347;243;1063;-78
2021/12/15 04:54:39;;;;;;;;;;;25.60;28.10;;;;;;487486;244;979;-78
2021/12/15 04:56:40;;;;;;;;;;;25.80;28.00;;;;;;487346;243;1228;-78
2021/12/15 04:58:41;;;;;;;;;;;25.60;28.00;;;;;;487437;244;1065;-78
2021/12/15 05:00:43;;;;;;;;;;;25.70;28.00;;;;;;487427;242;2190;-78
2021/12/15 05:02:44;;;;;;;;;;;25.70;27.90;;;;;;487362;244;1079;-78
2021/12/15 05:04:45;;;;;;;;;;;25.70;27.90;;;;;;487379;243;1101;-77
2021/12/15 05:06:47;;;;;;;;;;;25.70;28.00;;;;;;487325;243;1272;-78
2021/12/15 05:08:48;;;;;;;;;;;25.50;28.10;;;;;;487535;244;1091;-78
2021/12/15 05:10:50;;;;;;;;;;;25.60;28.10;;;;;;487353;243;1467;-78
2021/12/15 05:12:51;;;;;;;;;;;25.50;28.10;;;;;;487429;244;1227;-78
2021/12/15 05:14:52;;;;;;;;;;;25.70;28.10;;;;;;487428;243;988;-78
2021/12/15 05:16:54;;;;;;;;;;;25.60;28.10;;;;;;487350;244;1295;-78
2021/12/15 05:18:55;;;;;;;;;;;25.60;28.20;;;;;;487381;243;1057;-78
2021/12/15 05:20:58;;;;;;;;;;;25.70;28.10;;;;;;487282;243;2124;-78
2021/12/15 05:22:58;;;;;;;;;;;25.90;27.90;;;;;;487215;244;1370;-78
2021/12/15 05:24:59;;;;;;;;;;;25.80;27.90;;;;;;487335;243;1057;-78
2021/12/15 05:27:00;;;;;;;;;;;25.80;27.90;;;;;;487463;243;1330;-78
2021/12/15 05:29:02;;;;;;;;;;;25.90;28.00;;;;;;487488;242;1017;-78
2021/12/15 05:31:03;;;;;;;;;;;25.80;28.00;;;;;;487332;243;1178;-78
2021/12/15 05:33:04;;;;;;;;;;;25.30;28.10;;;;;;487267;243;1091;-77
2021/12/15 05:35:06;;;;;;;;;;;25.70;28.20;;;;;;487283;243;1057;-78
2021/12/15 05:37:07;;;;;;;;;;;25.50;28.10;;;;;;487585;243;1104;-78
2021/12/15 05:39:08;;;;;;;;;;;25.60;28.10;;;;;;487278;244;1063;-78
2021/12/15 05:41:10;;;;;;;;;;;25.50;28.20;;;;;;487257;243;2186;-78
2021/12/15 05:43:11;;;;;;;;;;;25.60;28.10;;;;;;487298;242;1100;-78
2021/12/15 05:45:12;;;;;;;;;;;25.80;28.10;;;;;;487357;242;1038;-77
2021/12/15 05:47:14;;;;;;;;;;;25.70;28.00;;;;;;487328;243;1195;-78
2021/12/15 05:49:15;;;;;;;;;;;25.80;28.10;;;;;;487162;245;1064;-77
2021/12/15 05:51:16;;;;;;;;;;;25.60;28.00;;;;;;487362;240;1632;-78
2021/12/15 05:53:18;;;;;;;;;;;25.70;28.10;;;;;;487202;243;1018;-78
2021/12/15 05:55:19;;;;;;;;;;;25.80;28.00;;;;;;487292;242;1095;-78
2021/12/15 05:57:20;;;;;;;;;;;25.60;28.10;;;;;;487815;242;1289;-77
2021/12/15 05:59:22;;;;;;;;;;;25.50;28.20;;;;;;487339;243;1014;-78
2021/12/15 06:01:23;;;;;;;;;;;25.30;28.30;;;;;;487125;243;2159;-78
2021/12/15 06:03:24;;;;;;;;;;;25.30;28.30;;;;;;487239;243;1065;-78
2021/12/15 06:05:26;;;;;;;;;;;25.40;28.30;;;;;;487187;242;985;-78
2021/12/15 06:07:27;;;;;;;;;;;25.60;28.10;;;;;;487351;240;1238;-78
2021/12/15 06:09:28;;;;;;;;;;;25.70;28.10;;;;;;487201;242;1117;-78
2021/12/15 06:11:30;;;;;;;;;;;25.70;28.00;;;;;;487040;242;1316;-77
2021/12/15 06:13:31;;;;;;;;;;;25.50;28.10;;;;;;487142;242;1257;-78
2021/12/15 06:15:33;;;;;;;;;;;25.60;28.10;;;;;;487104;244;1034;-77
2021/12/15 06:17:34;;;;;;;;;;;25.50;28.20;;;;;;487072;243;1140;-78
2021/12/15 06:19:35;;;;;;;;;;;25.80;27.90;;;;;;487001;245;1411;-78
2021/12/15 06:21:36;;;;;;;;;;;25.50;28.20;;;;;;487222;244;2201;-78
2021/12/15 06:23:38;;;;;;;;;;;25.70;28.10;;;;;;487131;245;1542;-77
2021/12/15 06:25:39;;;;;;;;;;;25.60;28.10;;;;;;487087;243;1054;-78
2021/12/15 06:27:41;;;;;;;;;;;25.70;28.10;;;;;;487290;243;1144;-78
2021/12/15 06:29:42;;;;;;;;;;;25.50;28.10;;;;;;487085;243;1053;-77
2021/12/15 06:31:43;;;;;;;;;;;25.80;28.10;;;;;;487004;244;1221;-77
2021/12/15 06:33:45;;;;;;;;;;;25.70;28.00;;;;;;487225;243;1033;-77
2021/12/15 06:35:52;;;;;;;;;;;25.80;28.00;;;;;;487152;244;1337;-77
2021/12/15 06:37:48;;;;;;;;;;;25.60;28.00;;;;;;486929;244;1410;-77
2021/12/15 06:39:50;;;;;;;;;;;25.80;28.00;;;;;;487157;243;1142;-77
2021/12/15 06:41:51;;;;;;;;;;;25.80;28.00;;;;;;487452;243;2190;-77
2021/12/15 06:43:55;;;;;;;;;;;25.90;27.90;;;;;;487114;243;1104;-77
2021/12/15 06:46:12;;;;;;;;;;;25.90;27.90;;;;;;487168;244;1357;-77
2021/12/15 06:57:34;;;;;;;;;;;25.70;27.90;;;;;;486928;242;1124;-77
2021/12/15 06:59:30;;;;;;;;;;;25.70;28.10;;;;;;486584;244;1446;-78
2021/12/15 07:01:32;;;;;;;;;;;25.80;28.00;;;;;;486877;243;2194;-77
2021/12/15 07:03:33;;;;;;;;;;;25.70;28.00;;;;;;487004;243;1018;-78
2021/12/15 07:05:34;;;;;;;;;;;25.90;27.90;;;;;;487194;243;1213;-78
2021/12/15 07:07:36;;;;;;;;;;;25.90;27.90;;;;;;487265;243;1419;-78
2021/12/15 07:09:37;;;;;;;;;;;25.70;28.00;;;;;;487055;243;1042;-77
2021/12/15 07:11:39;;;;;;;;;;;25.70;28.10;;;;;;487242;243;1201;-78
2021/12/15 07:13:40;;;;;;;;;;;25.70;27.90;;;;;;486993;243;1186;-77
2021/12/15 07:15:41;;;;;;;;;;;25.60;28.10;;;;;;486905;243;1068;-77
2021/12/15 07:17:45;;;;;;;;;;;25.60;28.10;;;;;;487196;243;1130;-77
2021/12/15 07:20:05;;;;;;;;;;;25.60;28.20;;;;;;486658;244;1414;-77
2021/12/15 07:22:05;;;;;;;;;;;25.40;28.30;;;;;;486027;243;2187;-77
2021/12/15 07:23:55;;;;;;;;;;;25.30;28.20;;;;;;486234;244;1352;-77
2021/12/15 07:25:56;;;;;;;;;;;25.30;28.30;;;;;;486902;242;1034;-77
2021/12/15 07:27:58;;;;;;;;;;;25.40;28.30;;;;;;486896;242;1127;-77
2021/12/15 07:29:59;;;;;;;;;;;25.50;28.20;;;;;;487009;243;1124;-77
2021/12/15 07:32:00;;;;;;;;;;;25.30;28.20;;;;;;486889;243;1022;-77
2021/12/15 07:34:02;;;;;;;;;;;25.70;28.20;;;;;;486966;243;1118;-77
2021/12/15 07:36:03;;;;;;;;;;;25.40;28.20;;;;;;486855;243;1063;-77
2021/12/15 07:38:04;;;;;;;;;;;25.40;28.30;;;;;;486982;243;1110;-77
2021/12/15 07:40:06;;;;;;;;;;;25.60;28.20;;;;;;486796;242;1073;-77
2021/12/15 07:42:10;;;;;;;;;;;25.50;28.20;;;;;;487020;242;2210;-77
2021/12/15 07:44:08;;;;;;;;;;;25.60;28.10;;;;;;486886;244;1402;-77
2021/12/15 07:46:10;;;;;;;;;;;25.50;28.10;;;;;;486682;243;1324;-77
2021/12/15 07:48:11;;;;;;;;;;;25.50;28.20;;;;;;486970;243;1094;-77
2021/12/15 07:50:12;;;;;;;;;;;25.40;28.10;;;;;;486818;243;1153;-77
2021/12/15 07:52:14;;;;;;;;;;;25.40;28.30;;;;;;486937;243;1131;-77
2021/12/15 07:54:16;;;;;;;;;;;25.40;28.20;;;;;;486806;243;1066;-77
2021/12/15 07:56:16;;;;;;;;;;;25.50;28.30;;;;;;486640;243;1321;-77
2021/12/15 07:58:18;;;;;;;;;;;25.60;28.30;;;;;;486833;243;1477;-77
2021/12/15 08:00:19;;;;;;;;;;;25.60;28.20;;;;;;486778;243;1060;-77
2021/12/15 08:02:21;;;;;;;;;;;25.60;28.20;;;;;;486736;243;2210;-77
2021/12/15 08:04:22;;;;;;;;;;;25.60;28.20;;;;;;486664;243;1066;-77
2021/12/15 08:06:23;;;;;;;;;;;25.60;28.10;;;;;;486821;243;1172;-77
2021/12/15 08:08:25;;;;;;;;;;;25.50;28.20;;;;;;486838;243;993;-77
2021/12/15 08:10:26;;;;;;;;;;;25.50;28.30;;;;;;486736;243;1081;-77
2021/12/15 08:12:28;;;;;;;;;;;25.80;28.10;;;;;;486626;243;1117;-77
2021/12/15 08:14:29;;;;;;;;;;;25.50;28.10;;;;;;486817;243;1173;-77
2021/12/15 08:16:30;;;;;;;;;;;25.80;28.20;;;;;;486536;240;1189;-77
2021/12/15 08:18:32;;;;;;;;;;;25.70;28.20;;;;;;486577;243;1238;-77
2021/12/15 08:20:33;;;;;;;;;;;25.70;28.10;;;;;;486683;243;1114;-77
2021/12/15 08:22:34;;;;;;;;;;;25.50;28.30;;;;;;486609;244;2198;-77
2021/12/15 08:24:35;;;;;;;;;;;25.70;28.20;;;;;;486644;244;1104;-77
2021/12/15 08:26:37;;;;;;;;;;;25.60;28.30;;;;;;486717;243;1074;-77
2021/12/15 08:28:38;;;;;;;;;;;25.70;28.20;;;;;;486785;243;1118;-77
2021/12/15 08:30:40;;;;;;;;;;;25.70;28.20;;;;;;486559;243;1086;-77
2021/12/15 08:32:41;;;;;;;;;;;25.80;28.10;;;;;;486595;243;1050;-77
2021/12/15 08:34:42;;;;;;;;;;;25.90;28.20;;;;;;486619;243;1087;-77
2021/12/15 08:36:43;;;;;;;;;;;26.00;28.00;;;;;;486831;243;1218;-77
2021/12/15 08:38:45;;;;;;;;;;;25.70;28.10;;;;;;486918;243;1062;-77
2021/12/15 08:40:46;;;;;;;;;;;25.70;28.20;;;;;;486999;243;1082;-77
2021/12/15 08:42:47;;;;;;;;;;;25.90;28.10;;;;;;486660;243;2127;-77
2021/12/15 08:44:49;;;;;;;;;;;25.80;28.20;;;;;;486639;243;1144;-77
2021/12/15 08:46:50;;;;;;;;;;;25.60;28.20;;;;;;486429;243;1260;-77
2021/12/15 08:48:53;;;;;;;;;;;25.50;28.30;;;;;;486584;244;1093;-77
2021/12/15 08:50:53;;;;;;;;;;;25.50;28.30;;;;;;486791;244;1456;-77
2021/12/15 08:52:54;;;;;;;;;;;25.40;28.50;;;;;;486619;243;1038;-77
2021/12/15 08:54:56;;;;;;;;;;;25.40;28.50;;;;;;486715;243;977;-77
2021/12/15 08:56:57;;;;;;;;;;;25.30;28.50;;;;;;486742;243;1285;-77
2021/12/15 08:58:58;;;;;;;;;;;25.40;28.50;;;;;;486690;243;1255;-77
2021/12/15 09:01:00;;;;;;;;;;;25.70;28.40;;;;;;486591;243;1326;-77
2021/12/15 09:03:01;;;;;;;;;;;25.70;28.30;;;;;;486558;243;2185;-77
2021/12/15 09:05:02;;;;;;;;;;;25.50;28.40;;;;;;486696;243;1065;-77
2021/12/15 09:07:04;;;;;;;;;;;25.50;28.50;;;;;;486755;243;1143;-77
2021/12/15 09:09:05;;;;;;;;;;;25.60;28.40;;;;;;486782;245;1042;-77
2021/12/15 09:11:06;;;;;;;;;;;25.60;28.40;;;;;;486676;243;1089;-77
2021/12/15 09:13:08;;;;;;;;;;;25.70;28.30;;;;;;486780;242;1095;-77
2021/12/15 09:15:09;;;;;;;;;;;25.70;28.40;;;;;;486566;243;1109;-77
2021/12/15 09:17:10;;;;;;;;;;;25.80;28.40;;;;;;486618;243;1076;-77
2021/12/15 09:19:12;;;;;;;;;;;25.60;28.40;;;;;;486633;243;1084;-77
2021/12/15 09:21:13;;;;;;;;;;;25.40;28.50;;;;;;486701;243;1104;-77
2021/12/15 09:23:14;;;;;;;;;;;25.60;28.50;;;;;;486578;244;2202;-77
2021/12/15 09:25:16;;;;;;;;;;;25.60;28.50;;;;;;486615;243;1056;-77
2021/12/15 09:27:17;;;;;;;;;;;25.60;28.40;;;;;;486565;243;1068;-77
2021/12/15 09:29:18;;;;;;;;;;;25.90;28.40;;;;;;486588;243;1160;-77
2021/12/15 09:31:20;;;;;;;;;;;26.00;28.30;;;;;;486490;243;1088;-77
2021/12/15 09:33:21;;;;;;;;;;;25.80;28.30;;;;;;486658;243;1244;-77
2021/12/15 09:35:22;;;;;;;;;;;25.70;28.30;;;;;;486599;243;1074;-77
2021/12/15 09:37:24;;;;;;;;;;;25.40;28.50;;;;;;486693;242;1081;-77
2021/12/15 09:39:25;;;;;;;;;;;25.50;28.60;;;;;;486757;243;1045;-77
2021/12/15 09:41:26;;;;;;;;;;;25.60;28.50;;;;;;486649;243;1321;-77
2021/12/15 09:43:30;;;;;;;;;;;25.70;28.50;;;;;;486996;244;2189;-77
2021/12/15 09:45:38;;;;;;;;;;;25.60;28.50;;;;;;486922;244;1496;-77
2021/12/15 09:47:48;;;;;;;;;;;25.70;28.50;;;;;;486102;244;1420;-77
2021/12/15 10:03:51;;;;;;;;;;;25.40;28.90;;;;;;481670;245;2170;-77
2021/12/15 10:05:54;;;;;;;;;;;25.50;28.60;;;;;;486295;243;1442;-77
2021/12/15 10:17:23;;;;;;;;;;;25.50;28.60;;;;;;486681;243;1040;-77
2021/12/15 10:19:18;;;;;;;;;;;25.80;28.50;;;;;;486812;242;1578;-77
2021/12/15 10:21:14;;;;;;;;;;;25.70;28.50;;;;;;486062;244;1297;-77
2021/12/15 10:23:16;;;;;;;;;;;25.90;28.60;;;;;;486425;243;2205;-78
2021/12/15 10:25:16;;;;;;;;;;;25.90;28.40;;;;;;486225;244;1448;-77
2021/12/15 10:27:18;;;;;;;;;;;25.80;28.50;;;;;;486226;241;1217;-77
2021/12/15 10:29:21;;;;;;;;;;;25.60;28.60;;;;;;486243;243;1118;-77
2021/12/15 10:31:20;;;;;;;;;;;25.80;28.60;;;;;;486330;244;1327;-77
2021/12/15 10:33:22;;;;;;;;;;;25.70;28.50;;;;;;486392;243;1023;-77
2021/12/15 10:35:23;;;;;;;;;;;25.70;28.70;;;;;;486396;243;1020;-77
2021/12/15 10:37:24;;;;;;;;;;;25.70;28.50;;;;;;486321;243;1070;-77
2021/12/15 10:39:26;;;;;;;;;;;25.70;28.60;;;;;;486383;243;991;-78
2021/12/15 10:41:27;;;;;;;;;;;25.60;28.70;;;;;;486462;244;1137;-77
2021/12/15 10:43:28;;;;;;;;;;;25.70;28.70;;;;;;486766;243;2112;-77
2021/12/15 10:45:30;;;;;;;;;;;25.70;28.70;;;;;;486367;243;1188;-77
2021/12/15 10:47:31;;;;;;;;;;;25.60;28.60;;;;;;486560;243;1199;-77
2021/12/15 10:49:32;;;;;;;;;;;25.80;28.70;;;;;;486417;243;1216;-77
2021/12/15 10:51:34;;;;;;;;;;;25.40;28.80;;;;;;486627;244;1323;-77
2021/12/15 10:53:35;;;;;;;;;;;25.20;29.10;;;;;;486647;243;1053;-77
2021/12/15 10:55:36;;;;;;;;;;;25.40;28.80;;;;;;486555;243;1024;-77
2021/12/15 10:57:43;;;;;;;;;;;25.20;28.90;;;;;;486453;244;1183;-77
2021/12/15 10:59:39;;;;;;;;;;;25.20;28.90;;;;;;486062;243;1414;-77
2021/12/15 11:01:40;;;;;;;;;;;25.40;28.90;;;;;;486630;243;1190;-77
2021/12/15 11:03:42;;;;;;;;;;;25.40;28.80;;;;;;486372;245;2194;-77
2021/12/15 11:05:43;;;;;;;;;;;25.30;28.90;;;;;;486428;243;1040;-77
2021/12/15 11:07:44;;;;;;;;;;;25.20;28.90;;;;;;486422;243;1033;-77
2021/12/15 11:09:46;;;;;;;;;;;25.30;28.90;;;;;;486402;243;1059;-77
2021/12/15 11:11:47;;;;;;;;;;;25.20;28.70;;;;;;486232;243;1193;-77
2021/12/15 11:13:48;;;;;;;;;;;25.30;28.90;;;;;;486173;243;1010;-77
2021/12/15 11:15:50;;;;;;;;;;;25.30;28.90;;;;;;486443;243;1287;-77
2021/12/15 11:17:51;;;;;;;;;;;25.20;29.00;;;;;;486498;243;1054;-77
2021/12/15 11:19:52;;;;;;;;;;;25.10;29.10;;;;;;486433;244;1062;-77
2021/12/15 11:21:54;;;;;;;;;;;24.80;29.30;;;;;;486505;243;1378;-77
2021/12/15 11:23:55;;;;;;;;;;;24.90;29.20;;;;;;486608;244;2194;-77
2021/12/15 11:25:56;;;;;;;;;;;25.00;29.20;;;;;;486530;240;1147;-77
2021/12/15 11:27:58;;;;;;;;;;;25.00;29.10;;;;;;486631;243;1109;-77
2021/12/15 11:29:59;;;;;;;;;;;25.10;29.10;;;;;;486546;243;1181;-77
2021/12/15 11:32:00;;;;;;;;;;;25.00;29.00;;;;;;486646;243;1294;-77
2021/12/15 11:34:02;;;;;;;;;;;25.10;29.10;;;;;;486395;243;1004;-77
2021/12/15 11:36:03;;;;;;;;;;;25.20;28.90;;;;;;486359;242;1480;-77
2021/12/15 11:38:05;;;;;;;;;;;25.20;28.80;;;;;;486430;243;1056;-77
2021/12/15 11:40:06;;;;;;;;;;;25.50;28.80;;;;;;486474;244;1056;-77
2021/12/15 11:42:07;;;;;;;;;;;25.20;28.80;;;;;;486486;243;1111;-77
2021/12/15 11:44:08;;;;;;;;;;;25.10;29.00;;;;;;486534;243;2202;-77
2021/12/15 11:46:10;;;;;;;;;;;24.70;29.30;;;;;;486378;243;1168;-77
2021/12/15 11:48:11;;;;;;;;;;;24.70;29.40;;;;;;486344;243;1042;-77
2021/12/15 11:50:12;;;;;;;;;;;24.70;29.20;;;;;;486276;245;1090;-77
2021/12/15 11:52:14;;;;;;;;;;;24.40;29.70;;;;;;486574;243;1065;-77
2021/12/15 11:54:15;;;;;;;;;;;24.30;29.60;;;;;;486493;243;1280;-78
2021/12/15 11:56:16;;;;;;;;;;;24.10;29.80;;;;;;486447;243;1067;-77
2021/12/15 11:58:18;;;;;;;;;;;23.90;30.10;;;;;;486660;243;1065;-77
2021/12/15 12:00:19;;;;;;;;;;;23.70;30.20;;;;;;486443;243;1028;-77
2021/12/15 12:02:21;;;;;;;;;;;23.50;30.50;;;;;;486542;243;1162;-77
2021/12/15 12:04:22;;;;;;;;;;;23.40;30.80;;;;;;486439;243;2186;-77
2021/12/15 12:06:24;;;;;;;;;;;23.10;30.90;;;;;;486444;243;1215;-77
2021/12/15 12:08:27;;;;;;;;;;;23.10;31.10;;;;;;486559;243;1074;-77
2021/12/15 12:10:29;;;;;;;;;;;23.00;31.30;;;;;;486183;243;1294;-78
2021/12/15 12:12:33;;;;;;;;;;;22.70;31.50;;;;;;486381;244;1430;-77
2021/12/15 12:14:42;;;;;;;;;;;22.60;31.70;;;;;;486125;244;1300;-77
2021/12/15 12:16:41;;;;;;;;;;;22.80;31.70;;;;;;486505;240;1416;-77
2021/12/15 12:18:42;;;;;;;;;;;22.90;31.30;;;;;;486689;243;996;-77
2021/12/15 12:20:44;;;;;;;;;;;22.70;31.60;;;;;;486720;243;1067;-77
2021/12/15 12:22:45;;;;;;;;;;;22.40;32.10;;;;;;486606;243;1076;-77
2021/12/15 12:24:46;;;;;;;;;;;22.00;32.40;;;;;;486532;243;2205;-77
2021/12/15 12:26:48;;;;;;;;;;;21.80;32.90;;;;;;486433;242;1210;-77
2021/12/15 12:28:49;;;;;;;;;;;21.60;33.20;;;;;;486661;242;1027;-77
2021/12/15 12:30:51;;;;;;;;;;;21.50;33.40;;;;;;486611;243;1121;-77
2021/12/15 12:32:52;;;;;;;;;;;22.10;32.80;;;;;;486727;243;1225;-77
2021/12/15 12:34:53;;;;;;;;;;;22.70;31.80;;;;;;486647;244;1101;-77
2021/12/15 12:36:54;;;;;;;;;;;23.30;31.00;;;;;;486606;243;1188;-77
2021/12/15 12:38:56;;;;;;;;;;;23.50;30.60;;;;;;486613;243;1122;-77
2021/12/15 12:40:57;;;;;;;;;;;23.60;30.40;;;;;;486419;243;1032;-77
2021/12/15 12:42:58;;;;;;;;;;;23.80;30.10;;;;;;486375;243;1083;-77
2021/12/15 12:45:00;;;;;;;;;;;23.90;30.00;;;;;;486528;242;2186;-77
2021/12/15 12:47:05;;;;;;;;;;;23.90;29.90;;;;;;486439;240;1148;-77
2021/12/15 12:49:25;;;;;;;;;;;23.90;30.00;;;;;;486421;243;1381;-77
2021/12/15 13:00:48;;;;;;;;;;;23.80;30.00;;;;;;469090;244;1169;-77
2021/12/15 13:02:48;;;;;;;;;;;23.80;30.00;;;;;;486445;244;1380;-77